sensor_id;sensor_type;location;lat;lon;timestamp;P1;durP1;ratioP1;P2;durP2;ratioP2
41343;SDS011;27089;50.022;7.604;2022-08-19T00:00:30;21.40;;;19.07;;
41343;SDS011;27089;50.022;7.604;2022-08-19T00:02:57;19.07;;;16.97;;
41343;SDS011;27089;50.022;7.604;2022-08-19T00:05:24;19.33;;;17.43;;
41343;SDS011;27089;50.022;7.604;2022-08-19T00:07:51;19.13;;;16.73;;
41343;SDS011;27089;50.022;7.604;2022-08-19T00:10:19;19.07;;;16.60;;
41343;SDS011;27089;50.022;7.604;2022-08-19T00:12:46;18.50;;;16.42;;
41343;SDS011;27089;50.022;7.604;2022-08-19T00:15:14;19.77;;;17.85;;
41343;SDS011;27089;50.022;7.604;2022-08-19T00:17:44;18.25;;;16.17;;
41343;SDS011;27089;50.022;7.604;2022-08-19T00:20:13;18.05;;;16.15;;
41343;SDS011;27089;50.022;7.604;2022-08-19T00:22:42;18.48;;;16.55;;
41343;SDS011;27089;50.022;7.604;2022-08-19T00:25:10;19.53;;;17.40;;
41343;SDS011;27089;50.022;7.604;2022-08-19T00:27:38;18.52;;;16.48;;
41343;SDS011;27089;50.022;7.604;2022-08-19T00:30:06;17.48;;;15.70;;
41343;SDS011;27089;50.022;7.604;2022-08-19T00:32:34;16.90;;;15.20;;
41343;SDS011;27089;50.022;7.604;2022-08-19T00:35:03;17.17;;;15.43;;
41343;SDS011;27089;50.022;7.604;2022-08-19T00:37:30;17.60;;;15.17;;
41343;SDS011;27089;50.022;7.604;2022-08-19T00:39:59;17.23;;;15.47;;
41343;SDS011;27089;50.022;7.604;2022-08-19T00:42:27;17.27;;;15.47;;
41343;SDS011;27089;50.022;7.604;2022-08-19T00:44:55;17.83;;;15.97;;
41343;SDS011;27089;50.022;7.604;2022-08-19T00:47:22;16.17;;;14.48;;
41343;SDS011;27089;50.022;7.604;2022-08-19T00:49:50;16.90;;;15.10;;
41343;SDS011;27089;50.022;7.604;2022-08-19T00:52:23;16.93;;;15.13;;
41343;SDS011;27089;50.022;7.604;2022-08-19T00:54:54;16.70;;;14.83;;
41343;SDS011;27089;50.022;7.604;2022-08-19T00:57:23;19.77;;;15.73;;
41343;SDS011;27089;50.022;7.604;2022-08-19T00:59:55;17.47;;;15.67;;
41343;SDS011;27089;50.022;7.604;2022-08-19T01:02:24;17.10;;;15.30;;
41343;SDS011;27089;50.022;7.604;2022-08-19T01:04:55;19.30;;;15.53;;
41343;SDS011;27089;50.022;7.604;2022-08-19T01:07:24;19.13;;;16.03;;
41343;SDS011;27089;50.022;7.604;2022-08-19T01:09:52;16.93;;;15.13;;
41343;SDS011;27089;50.022;7.604;2022-08-19T01:12:19;15.83;;;13.93;;
41343;SDS011;27089;50.022;7.604;2022-08-19T01:14:47;18.03;;;13.37;;
41343;SDS011;27089;50.022;7.604;2022-08-19T01:17:15;17.47;;;13.37;;
41343;SDS011;27089;50.022;7.604;2022-08-19T01:19:43;16.33;;;12.77;;
41343;SDS011;27089;50.022;7.604;2022-08-19T01:22:14;14.37;;;12.93;;
41343;SDS011;27089;50.022;7.604;2022-08-19T01:24:47;13.80;;;12.10;;
41343;SDS011;27089;50.022;7.604;2022-08-19T01:27:14;15.77;;;13.40;;
41343;SDS011;27089;50.022;7.604;2022-08-19T01:29:42;14.87;;;12.37;;
41343;SDS011;27089;50.022;7.604;2022-08-19T01:32:11;16.15;;;12.80;;
41343;SDS011;27089;50.022;7.604;2022-08-19T01:34:39;15.03;;;12.30;;
41343;SDS011;27089;50.022;7.604;2022-08-19T01:37:10;15.73;;;12.50;;
41343;SDS011;27089;50.022;7.604;2022-08-19T01:39:39;14.57;;;12.70;;
41343;SDS011;27089;50.022;7.604;2022-08-19T01:42:08;14.67;;;12.67;;
41343;SDS011;27089;50.022;7.604;2022-08-19T01:44:37;14.90;;;13.30;;
41343;SDS011;27089;50.022;7.604;2022-08-19T01:47:05;16.73;;;13.57;;
41343;SDS011;27089;50.022;7.604;2022-08-19T01:49:34;14.57;;;12.73;;
41343;SDS011;27089;50.022;7.604;2022-08-19T01:52:02;13.90;;;12.50;;
41343;SDS011;27089;50.022;7.604;2022-08-19T01:54:30;13.60;;;12.10;;
41343;SDS011;27089;50.022;7.604;2022-08-19T01:56:58;15.40;;;12.03;;
41343;SDS011;27089;50.022;7.604;2022-08-19T01:59:30;13.77;;;12.30;;
41343;SDS011;27089;50.022;7.604;2022-08-19T02:01:58;14.77;;;12.93;;
41343;SDS011;27089;50.022;7.604;2022-08-19T02:04:26;17.00;;;14.20;;
41343;SDS011;27089;50.022;7.604;2022-08-19T02:06:53;19.87;;;15.07;;
41343;SDS011;27089;50.022;7.604;2022-08-19T02:09:20;19.33;;;17.23;;
41343;SDS011;27089;50.022;7.604;2022-08-19T02:11:47;16.87;;;15.03;;
41343;SDS011;27089;50.022;7.604;2022-08-19T02:14:14;16.97;;;15.17;;
41343;SDS011;27089;50.022;7.604;2022-08-19T02:16:42;18.20;;;16.30;;
41343;SDS011;27089;50.022;7.604;2022-08-19T02:19:10;18.10;;;16.23;;
41343;SDS011;27089;50.022;7.604;2022-08-19T02:21:37;18.33;;;16.43;;
41343;SDS011;27089;50.022;7.604;2022-08-19T02:24:04;20.30;;;16.90;;
41343;SDS011;27089;50.022;7.604;2022-08-19T02:26:31;20.70;;;18.50;;
41343;SDS011;27089;50.022;7.604;2022-08-19T02:28:58;21.10;;;17.33;;
41343;SDS011;27089;50.022;7.604;2022-08-19T02:31:25;18.50;;;15.87;;
41343;SDS011;27089;50.022;7.604;2022-08-19T02:33:55;16.90;;;15.30;;
41343;SDS011;27089;50.022;7.604;2022-08-19T02:36:23;16.63;;;14.93;;
41343;SDS011;27089;50.022;7.604;2022-08-19T02:38:51;16.47;;;14.87;;
41343;SDS011;27089;50.022;7.604;2022-08-19T02:41:18;19.90;;;17.90;;
41343;SDS011;27089;50.022;7.604;2022-08-19T02:43:47;20.00;;;17.67;;
41343;SDS011;27089;50.022;7.604;2022-08-19T02:46:15;21.27;;;18.27;;
41343;SDS011;27089;50.022;7.604;2022-08-19T02:48:46;18.63;;;16.73;;
41343;SDS011;27089;50.022;7.604;2022-08-19T02:51:17;19.20;;;16.87;;
41343;SDS011;27089;50.022;7.604;2022-08-19T02:53:44;19.30;;;17.27;;
41343;SDS011;27089;50.022;7.604;2022-08-19T02:56:12;20.87;;;17.50;;
41343;SDS011;27089;50.022;7.604;2022-08-19T02:58:39;20.40;;;17.40;;
41343;SDS011;27089;50.022;7.604;2022-08-19T03:01:08;19.27;;;17.03;;
41343;SDS011;27089;50.022;7.604;2022-08-19T03:03:36;18.63;;;16.63;;
41343;SDS011;27089;50.022;7.604;2022-08-19T03:06:04;18.27;;;16.37;;
41343;SDS011;27089;50.022;7.604;2022-08-19T03:08:34;19.20;;;17.07;;
41343;SDS011;27089;50.022;7.604;2022-08-19T03:11:01;19.87;;;17.77;;
41343;SDS011;27089;50.022;7.604;2022-08-19T03:13:29;21.13;;;17.60;;
41343;SDS011;27089;50.022;7.604;2022-08-19T03:15:56;19.43;;;17.27;;
41343;SDS011;27089;50.022;7.604;2022-08-19T03:18:23;18.60;;;16.60;;
41343;SDS011;27089;50.022;7.604;2022-08-19T03:20:51;17.90;;;16.00;;
41343;SDS011;27089;50.022;7.604;2022-08-19T03:23:19;17.60;;;15.83;;
41343;SDS011;27089;50.022;7.604;2022-08-19T03:25:48;18.03;;;15.40;;
41343;SDS011;27089;50.022;7.604;2022-08-19T03:28:16;18.43;;;14.73;;
41343;SDS011;27089;50.022;7.604;2022-08-19T03:30:54;20.13;;;15.83;;
41343;SDS011;27089;50.022;7.604;2022-08-19T03:33:23;18.83;;;16.07;;
41343;SDS011;27089;50.022;7.604;2022-08-19T03:36:04;16.13;;;14.53;;
41343;SDS011;27089;50.022;7.604;2022-08-19T03:38:34;17.47;;;15.63;;
41343;SDS011;27089;50.022;7.604;2022-08-19T03:41:07;15.47;;;13.93;;
41343;SDS011;27089;50.022;7.604;2022-08-19T03:43:36;16.57;;;14.60;;
41343;SDS011;27089;50.022;7.604;2022-08-19T03:46:05;16.40;;;13.87;;
41343;SDS011;27089;50.022;7.604;2022-08-19T03:48:33;17.07;;;14.70;;
41343;SDS011;27089;50.022;7.604;2022-08-19T03:51:02;16.93;;;15.00;;
41343;SDS011;27089;50.022;7.604;2022-08-19T03:53:30;16.90;;;15.10;;
41343;SDS011;27089;50.022;7.604;2022-08-19T03:55:58;18.83;;;15.57;;
41343;SDS011;27089;50.022;7.604;2022-08-19T03:58:28;16.33;;;14.63;;
41343;SDS011;27089;50.022;7.604;2022-08-19T04:00:55;17.10;;;13.77;;
41343;SDS011;27089;50.022;7.604;2022-08-19T04:03:23;15.27;;;13.67;;
41343;SDS011;27089;50.022;7.604;2022-08-19T04:05:51;15.17;;;13.70;;
41343;SDS011;27089;50.022;7.604;2022-08-19T04:08:19;18.17;;;13.97;;
41343;SDS011;27089;50.022;7.604;2022-08-19T04:10:47;17.57;;;14.70;;
41343;SDS011;27089;50.022;7.604;2022-08-19T04:13:14;16.10;;;13.67;;
41343;SDS011;27089;50.022;7.604;2022-08-19T04:15:44;17.00;;;15.20;;
41343;SDS011;27089;50.022;7.604;2022-08-19T04:18:12;18.00;;;14.63;;
41343;SDS011;27089;50.022;7.604;2022-08-19T04:20:41;16.87;;;14.53;;
41343;SDS011;27089;50.022;7.604;2022-08-19T04:23:09;17.57;;;15.73;;
41343;SDS011;27089;50.022;7.604;2022-08-19T04:25:37;19.07;;;15.93;;
41343;SDS011;27089;50.022;7.604;2022-08-19T04:28:06;19.13;;;15.87;;
41343;SDS011;27089;50.022;7.604;2022-08-19T04:30:38;18.40;;;15.53;;
41343;SDS011;27089;50.022;7.604;2022-08-19T04:33:08;16.50;;;14.60;;
41343;SDS011;27089;50.022;7.604;2022-08-19T04:35:37;15.53;;;13.83;;
41343;SDS011;27089;50.022;7.604;2022-08-19T04:38:05;17.07;;;14.27;;
41343;SDS011;27089;50.022;7.604;2022-08-19T04:40:32;15.07;;;13.57;;
41343;SDS011;27089;50.022;7.604;2022-08-19T04:43:17;16.47;;;14.50;;
41343;SDS011;27089;50.022;7.604;2022-08-19T04:45:44;15.60;;;14.00;;
41343;SDS011;27089;50.022;7.604;2022-08-19T04:48:13;19.07;;;14.67;;
41343;SDS011;27089;50.022;7.604;2022-08-19T04:50:41;16.53;;;14.73;;
41343;SDS011;27089;50.022;7.604;2022-08-19T04:53:09;15.97;;;13.67;;
41343;SDS011;27089;50.022;7.604;2022-08-19T04:55:40;15.87;;;14.27;;
41343;SDS011;27089;50.022;7.604;2022-08-19T04:58:08;18.63;;;16.60;;
41343;SDS011;27089;50.022;7.604;2022-08-19T05:00:37;17.40;;;15.50;;
41343;SDS011;27089;50.022;7.604;2022-08-19T05:03:05;17.17;;;14.40;;
41343;SDS011;27089;50.022;7.604;2022-08-19T05:05:33;15.30;;;13.57;;
41343;SDS011;27089;50.022;7.604;2022-08-19T05:08:04;15.97;;;13.67;;
41343;SDS011;27089;50.022;7.604;2022-08-19T05:10:32;15.10;;;13.57;;
41343;SDS011;27089;50.022;7.604;2022-08-19T05:13:02;15.97;;;14.33;;
41343;SDS011;27089;50.022;7.604;2022-08-19T05:15:29;18.20;;;13.97;;
41343;SDS011;27089;50.022;7.604;2022-08-19T05:17:56;22.30;;;13.80;;
41343;SDS011;27089;50.022;7.604;2022-08-19T05:20:42;19.60;;;14.50;;
41343;SDS011;27089;50.022;7.604;2022-08-19T05:23:27;17.17;;;13.17;;
41343;SDS011;27089;50.022;7.604;2022-08-19T05:25:54;18.77;;;13.77;;
41343;SDS011;27089;50.022;7.604;2022-08-19T05:28:21;19.00;;;14.93;;
41343;SDS011;27089;50.022;7.604;2022-08-19T05:30:48;17.13;;;14.37;;
41343;SDS011;27089;50.022;7.604;2022-08-19T05:33:15;21.37;;;15.47;;
41343;SDS011;27089;50.022;7.604;2022-08-19T05:35:44;18.50;;;15.93;;
41343;SDS011;27089;50.022;7.604;2022-08-19T05:38:13;19.57;;;15.27;;
41343;SDS011;27089;50.022;7.604;2022-08-19T05:40:40;21.20;;;15.60;;
41343;SDS011;27089;50.022;7.604;2022-08-19T05:43:10;19.23;;;14.53;;
41343;SDS011;27089;50.022;7.604;2022-08-19T05:45:40;19.20;;;14.70;;
41343;SDS011;27089;50.022;7.604;2022-08-19T05:48:08;18.77;;;14.30;;
41343;SDS011;27089;50.022;7.604;2022-08-19T05:50:37;17.83;;;13.97;;
41343;SDS011;27089;50.022;7.604;2022-08-19T05:53:06;16.03;;;14.23;;
41343;SDS011;27089;50.022;7.604;2022-08-19T05:55:34;15.60;;;14.00;;
41343;SDS011;27089;50.022;7.604;2022-08-19T05:58:03;16.37;;;14.13;;
41343;SDS011;27089;50.022;7.604;2022-08-19T06:00:32;15.17;;;13.67;;
41343;SDS011;27089;50.022;7.604;2022-08-19T06:02:59;17.13;;;13.60;;
41343;SDS011;27089;50.022;7.604;2022-08-19T06:05:28;16.70;;;14.57;;
41343;SDS011;27089;50.022;7.604;2022-08-19T06:07:55;16.80;;;14.60;;
41343;SDS011;27089;50.022;7.604;2022-08-19T06:10:25;16.93;;;14.80;;
41343;SDS011;27089;50.022;7.604;2022-08-19T06:12:53;16.03;;;14.20;;
41343;SDS011;27089;50.022;7.604;2022-08-19T06:15:21;16.80;;;14.67;;
41343;SDS011;27089;50.022;7.604;2022-08-19T06:17:50;17.53;;;14.77;;
41343;SDS011;27089;50.022;7.604;2022-08-19T06:20:17;16.30;;;14.43;;
41343;SDS011;27089;50.022;7.604;2022-08-19T06:22:47;16.43;;;14.67;;
41343;SDS011;27089;50.022;7.604;2022-08-19T06:25:16;18.03;;;14.47;;
41343;SDS011;27089;50.022;7.604;2022-08-19T06:27:45;16.40;;;14.70;;
41343;SDS011;27089;50.022;7.604;2022-08-19T06:30:12;17.10;;;14.67;;
41343;SDS011;27089;50.022;7.604;2022-08-19T06:32:39;18.23;;;15.07;;
41343;SDS011;27089;50.022;7.604;2022-08-19T06:35:07;18.40;;;13.77;;
41343;SDS011;27089;50.022;7.604;2022-08-19T06:37:35;16.37;;;14.67;;
41343;SDS011;27089;50.022;7.604;2022-08-19T06:40:03;18.97;;;16.00;;
41343;SDS011;27089;50.022;7.604;2022-08-19T06:42:33;17.30;;;15.50;;
41343;SDS011;27089;50.022;7.604;2022-08-19T06:45:01;16.87;;;15.13;;
41343;SDS011;27089;50.022;7.604;2022-08-19T06:47:29;18.20;;;14.40;;
41343;SDS011;27089;50.022;7.604;2022-08-19T06:49:57;17.37;;;14.27;;
41343;SDS011;27089;50.022;7.604;2022-08-19T06:52:28;15.90;;;14.00;;
41343;SDS011;27089;50.022;7.604;2022-08-19T06:54:55;17.90;;;14.87;;
41343;SDS011;27089;50.022;7.604;2022-08-19T06:57:22;18.67;;;15.73;;
41343;SDS011;27089;50.022;7.604;2022-08-19T06:59:50;18.63;;;16.10;;
41343;SDS011;27089;50.022;7.604;2022-08-19T07:02:19;16.97;;;15.17;;
41343;SDS011;27089;50.022;7.604;2022-08-19T07:04:46;19.17;;;15.43;;
41343;SDS011;27089;50.022;7.604;2022-08-19T07:07:14;20.40;;;14.83;;
41343;SDS011;27089;50.022;7.604;2022-08-19T07:09:42;20.40;;;15.80;;
41343;SDS011;27089;50.022;7.604;2022-08-19T07:12:11;20.07;;;15.50;;
41343;SDS011;27089;50.022;7.604;2022-08-19T07:14:40;17.10;;;15.27;;
41343;SDS011;27089;50.022;7.604;2022-08-19T07:17:08;19.67;;;14.23;;
41343;SDS011;27089;50.022;7.604;2022-08-19T07:19:38;16.13;;;14.37;;
41343;SDS011;27089;50.022;7.604;2022-08-19T07:22:06;18.67;;;15.03;;
41343;SDS011;27089;50.022;7.604;2022-08-19T07:24:34;16.83;;;14.47;;
41343;SDS011;27089;50.022;7.604;2022-08-19T07:27:02;17.97;;;15.03;;
41343;SDS011;27089;50.022;7.604;2022-08-19T07:29:32;16.30;;;14.60;;
41343;SDS011;27089;50.022;7.604;2022-08-19T07:32:01;16.20;;;14.20;;
41343;SDS011;27089;50.022;7.604;2022-08-19T07:34:29;16.20;;;13.70;;
41343;SDS011;27089;50.022;7.604;2022-08-19T07:37:00;19.88;;;14.38;;
41343;SDS011;27089;50.022;7.604;2022-08-19T07:39:29;16.20;;;13.25;;
41343;SDS011;27089;50.022;7.604;2022-08-19T07:41:58;17.38;;;14.82;;
41343;SDS011;27089;50.022;7.604;2022-08-19T07:44:27;17.83;;;14.32;;
41343;SDS011;27089;50.022;7.604;2022-08-19T07:46:55;16.67;;;14.93;;
41343;SDS011;27089;50.022;7.604;2022-08-19T07:49:22;20.73;;;15.82;;
41343;SDS011;27089;50.022;7.604;2022-08-19T07:51:50;17.60;;;15.50;;
41343;SDS011;27089;50.022;7.604;2022-08-19T07:54:21;20.38;;;15.57;;
41343;SDS011;27089;50.022;7.604;2022-08-19T07:56:49;18.80;;;16.20;;
41343;SDS011;27089;50.022;7.604;2022-08-19T07:59:18;19.00;;;14.93;;
41343;SDS011;27089;50.022;7.604;2022-08-19T08:01:45;21.38;;;17.58;;
41343;SDS011;27089;50.022;7.604;2022-08-19T08:04:14;23.27;;;20.80;;
41343;SDS011;27089;50.022;7.604;2022-08-19T08:07:10;18.85;;;16.85;;
41343;SDS011;27089;50.022;7.604;2022-08-19T08:09:56;19.52;;;16.45;;
41343;SDS011;27089;50.022;7.604;2022-08-19T08:12:25;19.13;;;17.08;;
41343;SDS011;27089;50.022;7.604;2022-08-19T08:14:56;19.35;;;16.88;;
41343;SDS011;27089;50.022;7.604;2022-08-19T08:17:28;18.10;;;15.52;;
41343;SDS011;27089;50.022;7.604;2022-08-19T08:19:56;22.60;;;18.65;;
41343;SDS011;27089;50.022;7.604;2022-08-19T08:22:24;22.80;;;20.42;;
41343;SDS011;27089;50.022;7.604;2022-08-19T08:25:13;22.40;;;20.00;;
41343;SDS011;27089;50.022;7.604;2022-08-19T08:27:42;22.50;;;19.73;;
41343;SDS011;27089;50.022;7.604;2022-08-19T08:30:12;19.83;;;17.73;;
41343;SDS011;27089;50.022;7.604;2022-08-19T08:32:41;21.70;;;18.80;;
41343;SDS011;27089;50.022;7.604;2022-08-19T08:35:10;20.95;;;18.75;;
41343;SDS011;27089;50.022;7.604;2022-08-19T08:37:39;20.05;;;17.58;;
41343;SDS011;27089;50.022;7.604;2022-08-19T08:40:17;17.95;;;16.13;;
41343;SDS011;27089;50.022;7.604;2022-08-19T08:42:51;16.88;;;15.18;;
41343;SDS011;27089;50.022;7.604;2022-08-19T08:45:25;17.58;;;15.77;;
41343;SDS011;27089;50.022;7.604;2022-08-19T08:47:53;15.27;;;13.75;;
41343;SDS011;27089;50.022;7.604;2022-08-19T08:50:25;14.10;;;12.70;;
41343;SDS011;27089;50.022;7.604;2022-08-19T08:53:01;12.27;;;11.00;;
41343;SDS011;27089;50.022;7.604;2022-08-19T08:55:33;11.93;;;10.73;;
41343;SDS011;27089;50.022;7.604;2022-08-19T08:58:01;14.15;;;11.43;;
41343;SDS011;27089;50.022;7.604;2022-08-19T09:00:32;12.80;;;11.50;;
41343;SDS011;27089;50.022;7.604;2022-08-19T09:03:01;13.00;;;11.70;;
41343;SDS011;27089;50.022;7.604;2022-08-19T09:05:33;12.93;;;10.68;;
41343;SDS011;27089;50.022;7.604;2022-08-19T09:08:08;11.80;;;10.45;;
41343;SDS011;27089;50.022;7.604;2022-08-19T09:10:45;12.50;;;10.88;;
41343;SDS011;27089;50.022;7.604;2022-08-19T09:13:19;10.48;;;9.15;;
41343;SDS011;27089;50.022;7.604;2022-08-19T09:15:56;11.95;;;9.27;;
41343;SDS011;27089;50.022;7.604;2022-08-19T09:18:36;9.45;;;8.55;;
41343;SDS011;27089;50.022;7.604;2022-08-19T09:21:06;10.15;;;8.27;;
41343;SDS011;27089;50.022;7.604;2022-08-19T09:23:34;8.32;;;7.55;;
41343;SDS011;27089;50.022;7.604;2022-08-19T09:26:04;9.38;;;7.50;;
41343;SDS011;27089;50.022;7.604;2022-08-19T09:28:34;10.68;;;8.68;;
41343;SDS011;27089;50.022;7.604;2022-08-19T09:31:02;7.88;;;7.15;;
41343;SDS011;27089;50.022;7.604;2022-08-19T09:33:29;9.05;;;8.15;;
41343;SDS011;27089;50.022;7.604;2022-08-19T09:36:03;8.32;;;7.50;;
41343;SDS011;27089;50.022;7.604;2022-08-19T09:38:32;8.63;;;7.82;;
41343;SDS011;27089;50.022;7.604;2022-08-19T09:41:03;9.52;;;8.18;;
41343;SDS011;27089;50.022;7.604;2022-08-19T09:43:31;8.05;;;7.25;;
41343;SDS011;27089;50.022;7.604;2022-08-19T09:45:59;10.77;;;8.10;;
41343;SDS011;27089;50.022;7.604;2022-08-19T09:48:26;8.30;;;7.60;;
41343;SDS011;27089;50.022;7.604;2022-08-19T09:50:53;8.45;;;7.57;;
41343;SDS011;27089;50.022;7.604;2022-08-19T09:53:20;7.70;;;6.90;;
41343;SDS011;27089;50.022;7.604;2022-08-19T09:55:48;9.02;;;7.03;;
41343;SDS011;27089;50.022;7.604;2022-08-19T09:58:17;7.57;;;6.88;;
41343;SDS011;27089;50.022;7.604;2022-08-19T10:00:44;7.90;;;6.80;;
41343;SDS011;27089;50.022;7.604;2022-08-19T10:03:11;8.82;;;7.78;;
41343;SDS011;27089;50.022;7.604;2022-08-19T10:05:38;9.13;;;8.23;;
41343;SDS011;27089;50.022;7.604;2022-08-19T10:08:15;7.80;;;6.78;;
41343;SDS011;27089;50.022;7.604;2022-08-19T10:10:44;10.60;;;7.30;;
41343;SDS011;27089;50.022;7.604;2022-08-19T10:13:12;8.45;;;6.45;;
41343;SDS011;27089;50.022;7.604;2022-08-19T10:15:43;8.73;;;7.20;;
41343;SDS011;27089;50.022;7.604;2022-08-19T10:18:10;8.73;;;6.88;;
41343;SDS011;27089;50.022;7.604;2022-08-19T10:20:37;8.27;;;7.18;;
41343;SDS011;27089;50.022;7.604;2022-08-19T10:23:06;7.70;;;6.47;;
41343;SDS011;27089;50.022;7.604;2022-08-19T10:25:33;7.75;;;7.05;;
41343;SDS011;27089;50.022;7.604;2022-08-19T10:28:01;7.25;;;6.65;;
41343;SDS011;27089;50.022;7.604;2022-08-19T10:30:28;6.97;;;5.90;;
41343;SDS011;27089;50.022;7.604;2022-08-19T10:32:56;7.43;;;6.55;;
41343;SDS011;27089;50.022;7.604;2022-08-19T10:35:24;7.63;;;6.03;;
41343;SDS011;27089;50.022;7.604;2022-08-19T10:37:54;8.13;;;6.88;;
41343;SDS011;27089;50.022;7.604;2022-08-19T10:40:24;6.95;;;6.22;;
41343;SDS011;27089;50.022;7.604;2022-08-19T10:42:52;7.95;;;7.15;;
41343;SDS011;27089;50.022;7.604;2022-08-19T10:45:20;6.75;;;6.13;;
41343;SDS011;27089;50.022;7.604;2022-08-19T10:47:50;10.05;;;8.25;;
41343;SDS011;27089;50.022;7.604;2022-08-19T10:50:19;7.57;;;6.70;;
41343;SDS011;27089;50.022;7.604;2022-08-19T10:53:04;8.48;;;6.57;;
41343;SDS011;27089;50.022;7.604;2022-08-19T10:55:34;8.88;;;6.80;;
41343;SDS011;27089;50.022;7.604;2022-08-19T10:58:19;7.53;;;6.78;;
41343;SDS011;27089;50.022;7.604;2022-08-19T11:00:51;7.70;;;6.90;;
41343;SDS011;27089;50.022;7.604;2022-08-19T11:03:19;8.48;;;6.40;;
41343;SDS011;27089;50.022;7.604;2022-08-19T11:05:51;7.53;;;6.72;;
41343;SDS011;27089;50.022;7.604;2022-08-19T11:08:23;8.73;;;6.43;;
41343;SDS011;27089;50.022;7.604;2022-08-19T11:10:51;7.55;;;6.85;;
41343;SDS011;27089;50.022;7.604;2022-08-19T11:13:24;7.20;;;6.50;;
41343;SDS011;27089;50.022;7.604;2022-08-19T11:15:58;9.45;;;8.25;;
41343;SDS011;27089;50.022;7.604;2022-08-19T11:18:26;8.20;;;6.82;;
41343;SDS011;27089;50.022;7.604;2022-08-19T11:20:55;6.38;;;5.78;;
41343;SDS011;27089;50.022;7.604;2022-08-19T11:23:32;7.32;;;6.10;;
41343;SDS011;27089;50.022;7.604;2022-08-19T11:25:59;6.47;;;5.75;;
41343;SDS011;27089;50.022;7.604;2022-08-19T11:28:26;7.45;;;6.38;;
41343;SDS011;27089;50.022;7.604;2022-08-19T11:30:53;7.53;;;5.75;;
41343;SDS011;27089;50.022;7.604;2022-08-19T11:33:20;6.97;;;6.00;;
41343;SDS011;27089;50.022;7.604;2022-08-19T11:35:47;8.07;;;5.80;;
41343;SDS011;27089;50.022;7.604;2022-08-19T11:38:16;7.88;;;6.68;;
41343;SDS011;27089;50.022;7.604;2022-08-19T11:40:43;7.57;;;6.75;;
41343;SDS011;27089;50.022;7.604;2022-08-19T11:43:10;6.97;;;6.07;;
41343;SDS011;27089;50.022;7.604;2022-08-19T11:45:37;7.82;;;6.03;;
41343;SDS011;27089;50.022;7.604;2022-08-19T11:48:04;7.10;;;6.40;;
41343;SDS011;27089;50.022;7.604;2022-08-19T11:50:31;9.60;;;6.13;;
41343;SDS011;27089;50.022;7.604;2022-08-19T11:52:58;7.47;;;5.40;;
41343;SDS011;27089;50.022;7.604;2022-08-19T11:55:27;6.85;;;5.95;;
41343;SDS011;27089;50.022;7.604;2022-08-19T11:57:54;5.93;;;5.38;;
41343;SDS011;27089;50.022;7.604;2022-08-19T12:00:21;7.45;;;5.82;;
41343;SDS011;27089;50.022;7.604;2022-08-19T12:02:48;8.38;;;5.68;;
41343;SDS011;27089;50.022;7.604;2022-08-19T12:05:15;6.35;;;5.80;;
41343;SDS011;27089;50.022;7.604;2022-08-19T12:07:42;6.90;;;6.20;;
41343;SDS011;27089;50.022;7.604;2022-08-19T12:10:10;6.20;;;5.70;;
41343;SDS011;27089;50.022;7.604;2022-08-19T12:12:38;6.75;;;5.90;;
41343;SDS011;27089;50.022;7.604;2022-08-19T12:15:09;7.55;;;6.45;;
41343;SDS011;27089;50.022;7.604;2022-08-19T12:17:37;6.70;;;6.10;;
41343;SDS011;27089;50.022;7.604;2022-08-19T12:20:05;12.00;;;6.03;;
41343;SDS011;27089;50.022;7.604;2022-08-19T12:22:35;6.88;;;6.28;;
41343;SDS011;27089;50.022;7.604;2022-08-19T12:25:03;8.43;;;6.43;;
41343;SDS011;27089;50.022;7.604;2022-08-19T12:27:32;7.85;;;6.65;;
41343;SDS011;27089;50.022;7.604;2022-08-19T12:30:01;9.38;;;6.30;;
41343;SDS011;27089;50.022;7.604;2022-08-19T12:32:29;6.90;;;6.22;;
41343;SDS011;27089;50.022;7.604;2022-08-19T12:34:56;6.57;;;5.90;;
41343;SDS011;27089;50.022;7.604;2022-08-19T12:37:23;8.65;;;6.85;;
41343;SDS011;27089;50.022;7.604;2022-08-19T12:39:50;7.20;;;6.50;;
41343;SDS011;27089;50.022;7.604;2022-08-19T12:42:17;9.25;;;7.07;;
41343;SDS011;27089;50.022;7.604;2022-08-19T12:44:44;7.95;;;7.05;;
41343;SDS011;27089;50.022;7.604;2022-08-19T12:47:13;10.07;;;7.40;;
41343;SDS011;27089;50.022;7.604;2022-08-19T12:49:40;9.77;;;7.13;;
41343;SDS011;27089;50.022;7.604;2022-08-19T12:52:08;8.27;;;6.85;;
41343;SDS011;27089;50.022;7.604;2022-08-19T12:54:36;7.80;;;6.63;;
41343;SDS011;27089;50.022;7.604;2022-08-19T12:57:04;8.75;;;7.43;;
41343;SDS011;27089;50.022;7.604;2022-08-19T12:59:33;10.00;;;7.25;;
41343;SDS011;27089;50.022;7.604;2022-08-19T13:02:01;7.78;;;6.40;;
41343;SDS011;27089;50.022;7.604;2022-08-19T13:04:31;8.52;;;6.47;;
41343;SDS011;27089;50.022;7.604;2022-08-19T13:07:00;8.60;;;6.60;;
41343;SDS011;27089;50.022;7.604;2022-08-19T13:09:28;8.57;;;6.65;;
41343;SDS011;27089;50.022;7.604;2022-08-19T13:11:55;8.20;;;7.25;;
41343;SDS011;27089;50.022;7.604;2022-08-19T13:14:22;7.22;;;6.57;;
41343;SDS011;27089;50.022;7.604;2022-08-19T13:16:49;8.75;;;7.50;;
41343;SDS011;27089;50.022;7.604;2022-08-19T13:19:16;11.80;;;7.90;;
41343;SDS011;27089;50.022;7.604;2022-08-19T13:21:48;11.02;;;7.90;;
41343;SDS011;27089;50.022;7.604;2022-08-19T13:24:15;12.55;;;7.85;;
41343;SDS011;27089;50.022;7.604;2022-08-19T13:26:42;9.82;;;7.60;;
41343;SDS011;27089;50.022;7.604;2022-08-19T13:29:09;11.95;;;7.40;;
41343;SDS011;27089;50.022;7.604;2022-08-19T13:31:54;13.10;;;8.43;;
41343;SDS011;27089;50.022;7.604;2022-08-19T13:34:38;8.30;;;7.50;;
41343;SDS011;27089;50.022;7.604;2022-08-19T13:37:07;9.13;;;8.07;;
41343;SDS011;27089;50.022;7.604;2022-08-19T13:39:34;8.27;;;7.00;;
41343;SDS011;27089;50.022;7.604;2022-08-19T13:42:02;6.93;;;6.32;;
41343;SDS011;27089;50.022;7.604;2022-08-19T13:44:31;9.00;;;6.95;;
41343;SDS011;27089;50.022;7.604;2022-08-19T13:47:00;7.53;;;6.82;;
41343;SDS011;27089;50.022;7.604;2022-08-19T13:49:31;8.02;;;7.22;;
41343;SDS011;27089;50.022;7.604;2022-08-19T13:51:59;7.75;;;6.95;;
41343;SDS011;27089;50.022;7.604;2022-08-19T13:54:27;6.80;;;6.10;;
41343;SDS011;27089;50.022;7.604;2022-08-19T13:56:54;8.07;;;7.03;;
41343;SDS011;27089;50.022;7.604;2022-08-19T13:59:21;8.50;;;7.35;;
41343;SDS011;27089;50.022;7.604;2022-08-19T14:01:48;7.15;;;6.55;;
41343;SDS011;27089;50.022;7.604;2022-08-19T14:04:15;7.90;;;6.20;;
41343;SDS011;27089;50.022;7.604;2022-08-19T14:06:42;7.40;;;6.10;;
41343;SDS011;27089;50.022;7.604;2022-08-19T14:09:09;8.20;;;7.40;;
41343;SDS011;27089;50.022;7.604;2022-08-19T14:11:37;9.57;;;7.32;;
41343;SDS011;27089;50.022;7.604;2022-08-19T14:14:04;9.75;;;7.40;;
41343;SDS011;27089;50.022;7.604;2022-08-19T14:16:31;9.35;;;7.15;;
41343;SDS011;27089;50.022;7.604;2022-08-19T14:18:58;7.75;;;6.80;;
41343;SDS011;27089;50.022;7.604;2022-08-19T14:21:25;10.60;;;7.40;;
41343;SDS011;27089;50.022;7.604;2022-08-19T14:23:52;9.10;;;7.47;;
41343;SDS011;27089;50.022;7.604;2022-08-19T14:26:20;7.55;;;6.60;;
41343;SDS011;27089;50.022;7.604;2022-08-19T14:28:49;8.57;;;7.05;;
41343;SDS011;27089;50.022;7.604;2022-08-19T14:31:17;8.95;;;7.30;;
41343;SDS011;27089;50.022;7.604;2022-08-19T14:33:45;9.35;;;6.95;;
41343;SDS011;27089;50.022;7.604;2022-08-19T14:36:12;8.75;;;6.82;;
41343;SDS011;27089;50.022;7.604;2022-08-19T14:38:41;7.13;;;6.40;;
41343;SDS011;27089;50.022;7.604;2022-08-19T14:41:09;7.47;;;6.78;;